Time,TemperatureF,DewpointF,PressureIn,WindDirection,WindDirectionDegrees,WindSpeedMPH,WindSpeedGustMPH,Humidity,HourlyPrecipIn,Conditions,Clouds,dailyrainin,SoftwareType,DateUTC
2013-01-31 00:01:00,13.3,11.9,29.57,NNW,328,9.5,15.0,94,0.00,-SN,,0.00,WeatherDisplay:10.37,2013-01-31 06:01:00,
2013-01-31 00:06:00,13.2,11.8,29.58,WNW,302,11.0,20.7,94,0.00,-SN,,0.00,WeatherDisplay:10.37,2013-01-31 06:06:00,
2013-01-31 00:11:00,13.1,11.7,29.58,WNW,284,8.6,13.8,94,0.00,-SN,,0.00,WeatherDisplay:10.37,2013-01-31 06:11:00,
2013-01-31 00:16:00,12.9,11.5,29.58,NW,318,9.2,16.1,94,0.00,-SN,,0.00,WeatherDisplay:10.37,2013-01-31 06:16:00,
2013-01-31 00:21:00,13.1,11.7,29.58,WNW,301,7.2,12.7,94,0.00,-SN,,0.00,WeatherDisplay:10.37,2013-01-31 06:21:00,
2013-01-31 00:26:00,12.8,11.2,29.58,NW,311,10.0,16.1,93,0.00,-SN,,0.00,WeatherDisplay:10.37,2013-01-31 06:26:00,
2013-01-31 00:31:00,12.7,11.3,29.58,WNW,288,10.8,19.6,94,0.00,-SN,,0.00,WeatherDisplay:10.37,2013-01-31 06:31:00,
2013-01-31 00:36:00,13.0,11.8,29.59,West,273,4.6,6.9,95,0.00,-SN,,0.00,WeatherDisplay:10.37,2013-01-31 06:36:00,
2013-01-31 00:41:00,12.8,12.1,29.59,NW,318,8.2,12.7,97,0.00,-SN,,0.00,WeatherDisplay:10.37,2013-01-31 06:41:00,
2013-01-31 00:46:00,12.7,12.0,29.59,NW,309,9.4,17.3,97,0.00,-SN,,0.00,WeatherDisplay:10.37,2013-01-31 06:46:00,
2013-01-31 00:51:00,12.6,11.9,29.59,WNW,287,8.3,13.8,97,0.00,-SN,,0.00,WeatherDisplay:10.37,2013-01-31 06:51:00,
2013-01-31 00:56:00,12.7,11.5,29.59,NW,312,4.3,9.2,95,0.00,-SN,,0.00,WeatherDisplay:10.37,2013-01-31 06:56:00,
2013-01-31 01:01:00,12.7,11.3,29.60,NW,315,6.3,10.4,94,0.00,-SN,,0.00,WeatherDisplay:10.37,2013-01-31 07:01:00,
2013-01-31 01:06:00,12.7,11.3,29.60,West,273,4.9,8.1,94,0.00,-SN,,0.00,WeatherDisplay:10.37,2013-01-31 07:06:00,
2013-01-31 01:11:00,12.5,11.1,29.60,West,263,5.8,8.1,94,0.00,-SN,,0.00,WeatherDisplay:10.37,2013-01-31 07:11:00,
2013-01-31 01:16:00,12.6,11.4,29.60,SW,235,5.9,9.2,95,0.00,-SN,,0.00,WeatherDisplay:10.37,2013-01-31 07:16:00,
2013-01-31 01:21:00,12.3,11.1,29.60,NNW,331,7.4,11.5,95,0.00,-SN,,0.00,WeatherDisplay:10.37,2013-01-31 07:21:00,
2013-01-31 01:26:00,12.1,10.5,29.60,WSW,246,8.4,12.7,93,0.00,-SN,,0.00,WeatherDisplay:10.37,2013-01-31 07:26:00,
2013-01-31 01:31:00,12.3,10.9,29.61,WNW,287,4.1,8.1,94,0.00,-SN,,0.00,WeatherDisplay:10.37,2013-01-31 07:31:00,
2013-01-31 01:36:00,11.9,10.0,29.61,NNW,339,5.6,13.8,92,0.00,-SN,,0.00,WeatherDisplay:10.37,2013-01-31 07:36:00,
2013-01-31 01:41:00,11.7,9.1,29.62,West,278,8.0,16.1,89,0.00,-SN,,0.00,WeatherDisplay:10.37,2013-01-31 07:41:00,
2013-01-31 01:46:00,11.7,8.8,29.62,West,277,11.1,18.4,88,0.00,-SN,,0.00,WeatherDisplay:10.37,2013-01-31 07:46:00,
2013-01-31 01:51:00,11.7,9.1,29.62,NW,308,9.2,12.7,89,0.00,-SN,,0.00,WeatherDisplay:10.37,2013-01-31 07:51:00,
2013-01-31 01:56:00,11.6,8.7,29.62,WNW,295,9.1,14.6,88,0.00,-SN,,0.00,WeatherDisplay:10.37,2013-01-31 07:56:00,
2013-01-31 02:01:00,11.7,9.3,29.62,NW,308,6.7,11.5,90,0.00,-SN,,0.00,WeatherDisplay:10.37,2013-01-31 08:01:00,
2013-01-31 02:06:00,11.6,9.2,29.62,WNW,297,6.9,11.7,90,0.00,-SN,,0.00,WeatherDisplay:10.37,2013-01-31 08:06:00,
2013-01-31 02:11:00,11.7,9.3,29.63,NW,314,2.9,6.9,90,0.00,-SN,,0.00,WeatherDisplay:10.37,2013-01-31 08:11:00,
2013-01-31 02:16:00,11.7,9.3,29.63,NW,312,4.8,12.7,90,0.00,-SN,,0.00,WeatherDisplay:10.37,2013-01-31 08:16:00,
2013-01-31 02:21:00,11.7,9.3,29.63,NW,305,7.4,15.0,90,0.00,-SN,,0.00,WeatherDisplay:10.37,2013-01-31 08:21:00,
2013-01-31 02:26:00,11.8,9.7,29.63,WSW,252,3.6,9.2,91,0.00,-SN,,0.00,WeatherDisplay:10.37,2013-01-31 08:26:00,
2013-01-31 02:31:00,11.7,9.8,29.63,NW,316,4.8,8.1,92,0.00,-SN,,0.00,WeatherDisplay:10.37,2013-01-31 08:31:00,
2013-01-31 02:36:00,11.5,9.6,29.63,WNW,300,9.2,13.8,92,0.00,-SN,,0.00,WeatherDisplay:10.37,2013-01-31 08:36:00,
2013-01-31 02:41:00,11.7,9.8,29.63,WNW,291,6.2,8.1,92,0.00,-SN,,0.00,WeatherDisplay:10.37,2013-01-31 08:41:00,
2013-01-31 02:46:00,11.7,10.1,29.63,NW,325,5.4,10.4,93,0.00,-SN,,0.00,WeatherDisplay:10.37,2013-01-31 08:46:00,
2013-01-31 02:51:00,11.6,10.0,29.63,West,268,1.7,6.2,93,0.00,-SN,,0.00,WeatherDisplay:10.37,2013-01-31 08:51:00,
2013-01-31 02:56:00,11.7,10.1,29.63,NW,316,7.1,12.7,93,0.00,-SN,,0.00,WeatherDisplay:10.37,2013-01-31 08:56:00,
2013-01-31 03:01:00,11.6,10.0,29.63,NW,307,4.7,8.1,93,0.00,-SN,,0.00,WeatherDisplay:10.37,2013-01-31 09:01:00,
2013-01-31 03:06:00,11.6,10.0,29.63,WSW,256,8.6,11.5,93,0.00,-SN,,0.00,WeatherDisplay:10.37,2013-01-31 09:06:00,
2013-01-31 03:11:00,11.7,10.1,29.63,West,277,4.3,11.5,93,0.00,-SN,,0.00,WeatherDisplay:10.37,2013-01-31 09:11:00,
2013-01-31 03:16:00,11.6,10.2,29.63,SW,233,6.0,10.4,94,0.00,-SN,,0.00,WeatherDisplay:10.37,2013-01-31 09:16:00,
2013-01-31 03:21:00,11.6,10.2,29.63,WNW,285,2.8,6.9,94,0.00,-SN,,0.00,WeatherDisplay:10.37,2013-01-31 09:21:00,
2013-01-31 03:26:00,11.9,10.5,29.63,West,278,0.2,1.1,94,0.00,-SN,,0.00,WeatherDisplay:10.37,2013-01-31 09:26:00,
2013-01-31 03:31:00,11.9,10.7,29.63,WNW,285,3.2,8.1,95,0.00,-SN,,0.00,WeatherDisplay:10.37,2013-01-31 09:31:00,
2013-01-31 03:36:00,11.7,10.3,29.63,WNW,290,6.5,11.5,94,0.00,-SN,,0.00,WeatherDisplay:10.37,2013-01-31 09:36:00,
2013-01-31 03:41:00,11.9,10.7,29.63,WSW,240,4.3,6.9,95,0.00,-SN,,0.00,WeatherDisplay:10.37,2013-01-31 09:41:00,
2013-01-31 03:46:00,11.9,10.7,29.63,West,264,1.7,5.3,95,0.00,-SN,,0.00,WeatherDisplay:10.37,2013-01-31 09:46:00,
2013-01-31 03:51:00,11.9,11.0,29.63,WSW,237,3.3,6.9,96,0.00,-SN,,0.00,WeatherDisplay:10.37,2013-01-31 09:51:00,
2013-01-31 03:56:00,12.1,11.2,29.64,WSW,257,4.7,8.1,96,0.00,-SN,,0.00,WeatherDisplay:10.37,2013-01-31 09:56:00,
2013-01-31 04:01:00,11.8,11.1,29.64,West,281,5.0,9.2,97,0.00,-SN,,0.00,WeatherDisplay:10.37,2013-01-31 10:01:00,
2013-01-31 04:06:00,12.0,11.5,29.64,NW,305,2.8,6.9,98,0.00,-SN,,0.00,WeatherDisplay:10.37,2013-01-31 10:06:00,
2013-01-31 04:11:00,11.8,11.3,29.64,WSW,249,2.1,4.6,98,0.00,-SN,,0.00,WeatherDisplay:10.37,2013-01-31 10:11:00,
2013-01-31 04:16:00,11.8,11.6,29.64,WNW,295,3.8,8.1,99,0.00,-SN,,0.00,WeatherDisplay:10.37,2013-01-31 10:16:00,
2013-01-31 04:21:00,11.8,11.6,29.65,NW,315,2.3,9.2,99,0.00,-SN,,0.00,WeatherDisplay:10.37,2013-01-31 10:21:00,
2013-01-31 04:26:00,11.5,10.8,29.65,West,259,4.1,6.9,97,0.00,-SN,,0.00,WeatherDisplay:10.37,2013-01-31 10:26:00,
2013-01-31 04:31:00,11.3,10.4,29.65,SW,222,5.9,9.2,96,0.00,-SN,,0.00,WeatherDisplay:10.37,2013-01-31 10:31:00,
2013-01-31 04:36:00,11.2,10.0,29.65,SSW,213,7.1,12.7,95,0.00,-SN,,0.00,WeatherDisplay:10.37,2013-01-31 10:36:00,
2013-01-31 04:41:00,11.0,9.8,29.65,NW,307,6.1,10.4,95,0.00,-SN,,0.00,WeatherDisplay:10.37,2013-01-31 10:41:00,
2013-01-31 04:46:00,10.8,9.7,29.65,WNW,283,8.2,16.1,95,0.00,-SN,,0.00,WeatherDisplay:10.37,2013-01-31 10:46:00,
2013-01-31 04:51:00,10.8,9.7,29.65,WNW,291,5.6,10.4,95,0.00,-SN,,0.00,WeatherDisplay:10.37,2013-01-31 10:51:00,
2013-01-31 04:56:00,10.7,9.3,29.65,West,274,6.5,11.5,94,0.00,-SN,,0.00,WeatherDisplay:10.37,2013-01-31 10:56:00,
2013-01-31 05:01:00,10.7,9.6,29.65,SW,220,5.7,9.2,95,0.00,-SN,,0.00,WeatherDisplay:10.37,2013-01-31 11:01:00,
2013-01-31 05:06:00,10.6,9.2,29.65,NW,304,4.0,6.9,94,0.00,-SN,,0.00,WeatherDisplay:10.37,2013-01-31 11:06:00,
2013-01-31 05:11:00,10.4,9.0,29.65,WNW,297,1.9,6.9,94,0.00,-SN,,0.00,WeatherDisplay:10.37,2013-01-31 11:11:00,
2013-01-31 05:16:00,10.2,8.8,29.66,WNW,301,5.2,11.5,94,0.00,-SN,,0.00,WeatherDisplay:10.37,2013-01-31 11:16:00,
2013-01-31 05:21:00,10.2,8.8,29.66,WNW,301,1.7,7.6,94,0.00,-SN,,0.00,WeatherDisplay:10.37,2013-01-31 11:21:00,
2013-01-31 05:26:00,10.1,8.7,29.66,NW,304,7.0,10.4,94,0.00,-SN,,0.00,WeatherDisplay:10.37,2013-01-31 11:26:00,
2013-01-31 05:31:00,10.4,9.0,29.66,NW,305,4.9,11.5,94,0.00,-SN,,0.00,WeatherDisplay:10.37,2013-01-31 11:31:00,
2013-01-31 05:36:00,10.5,9.1,29.66,West,277,2.7,8.1,94,0.00,-SN,,0.00,WeatherDisplay:10.37,2013-01-31 11:36:00,
2013-01-31 05:41:00,10.5,9.1,29.66,West,270,1.7,10.4,94,0.00,-SN,,0.00,WeatherDisplay:10.37,2013-01-31 11:41:00,
2013-01-31 05:46:00,10.5,9.1,29.66,NNW,329,6.0,9.2,94,0.00,-SN,,0.00,WeatherDisplay:10.37,2013-01-31 11:46:00,
2013-01-31 05:51:00,10.5,8.9,29.67,SW,226,5.0,9.2,93,0.00,-SN,,0.00,WeatherDisplay:10.37,2013-01-31 11:51:00,
2013-01-31 05:56:00,10.5,8.9,29.67,NW,305,4.9,9.2,93,0.00,-SN,,0.00,WeatherDisplay:10.37,2013-01-31 11:56:00,
2013-01-31 06:01:00,10.5,8.9,29.67,NNW,336,5.6,11.5,93,0.00,-SN,,0.00,WeatherDisplay:10.37,2013-01-31 12:01:00,
2013-01-31 06:06:00,10.6,9.2,29.67,WNW,285,8.3,10.4,94,0.00,-SN,,0.00,WeatherDisplay:10.37,2013-01-31 12:06:00,
2013-01-31 06:11:00,10.4,9.3,29.68,WNW,298,5.0,10.4,95,0.00,-SN,,0.00,WeatherDisplay:10.37,2013-01-31 12:11:00,
2013-01-31 06:16:00,10.6,9.7,29.68,NW,318,5.1,13.8,96,0.00,-SN,,0.00,WeatherDisplay:10.37,2013-01-31 12:16:00,
2013-01-31 06:21:00,10.8,10.1,29.68,NNW,340,0.8,3.5,97,0.00,-SN,,0.00,WeatherDisplay:10.37,2013-01-31 12:21:00,
2013-01-31 06:26:00,10.5,10.0,29.69,WNW,283,5.3,9.2,98,0.00,-SN,,0.00,WeatherDisplay:10.37,2013-01-31 12:26:00,
2013-01-31 06:31:00,10.1,9.6,29.69,West,274,4.9,7.0,98,0.00,-SN,,0.00,WeatherDisplay:10.37,2013-01-31 12:31:00,
2013-01-31 06:36:00,10.1,9.9,29.69,West,281,5.7,9.2,99,0.00,-SN,,0.00,WeatherDisplay:10.37,2013-01-31 12:36:00,
2013-01-31 06:41:00,10.2,10.2,29.69,West,267,2.5,5.8,100,0.00,-SN,,0.00,WeatherDisplay:10.37,2013-01-31 12:41:00,
2013-01-31 06:46:00,10.0,10.0,29.69,NW,305,4.5,6.9,100,0.00,-SN,,0.00,WeatherDisplay:10.37,2013-01-31 12:46:00,
2013-01-31 06:51:00,9.7,9.5,29.69,NNW,340,6.5,9.2,99,0.00,-SN,,0.00,WeatherDisplay:10.37,2013-01-31 12:51:00,
2013-01-31 06:56:00,9.8,9.6,29.70,NNW,342,5.4,10.3,99,0.00,-SN,,0.00,WeatherDisplay:10.37,2013-01-31 12:56:00,
2013-01-31 07:01:00,9.8,9.6,29.70,NW,319,5.0,8.1,99,0.00,-SN,,0.00,WeatherDisplay:10.37,2013-01-31 13:01:00,
2013-01-31 07:06:00,9.6,9.1,29.70,NNW,336,6.4,10.4,98,0.00,-SN,,0.00,WeatherDisplay:10.37,2013-01-31 13:06:00,
2013-01-31 07:11:00,9.9,9.7,29.71,NNW,340,1.1,3.5,99,0.00,-SN,,0.00,WeatherDisplay:10.37,2013-01-31 13:11:00,
2013-01-31 07:16:00,9.8,9.6,29.71,WNW,298,2.8,5.8,99,0.00,-SN,,0.00,WeatherDisplay:10.37,2013-01-31 13:16:00,
2013-01-31 07:21:00,9.6,9.4,29.71,WNW,292,3.8,8.1,99,0.00,-SN,,0.00,WeatherDisplay:10.37,2013-01-31 13:21:00,
2013-01-31 07:26:00,9.7,9.2,29.71,WSW,254,2.6,5.8,98,0.00,-SN,,0.00,WeatherDisplay:10.37,2013-01-31 13:26:00,
2013-01-31 07:31:00,9.8,9.1,29.71,SW,220,4.2,6.9,97,0.00,-SN,,0.00,WeatherDisplay:10.37,2013-01-31 13:31:00,
2013-01-31 07:36:00,9.7,8.3,29.71,WNW,300,7.4,12.7,94,0.00,-SN,,0.00,WeatherDisplay:10.37,2013-01-31 13:36:00,
2013-01-31 07:41:00,9.7,8.3,29.72,WNW,285,5.8,11.5,94,0.00,-SN,,0.00,WeatherDisplay:10.37,2013-01-31 13:41:00,
2013-01-31 07:46:00,9.7,8.3,29.72,WNW,284,5.2,8.1,94,0.00,-SN,,0.00,WeatherDisplay:10.37,2013-01-31 13:46:00,
2013-01-31 07:51:00,9.9,9.0,29.72,NW,307,4.1,6.9,96,0.00,-SN,,0.00,WeatherDisplay:10.37,2013-01-31 13:51:00,
2013-01-31 07:56:00,9.6,8.9,29.72,NW,315,7.1,9.2,97,0.00,-SN,,0.00,WeatherDisplay:10.37,2013-01-31 13:56:00,
2013-01-31 08:01:00,9.4,8.7,29.72,NNW,338,6.8,10.4,97,0.00,BKN,,0.00,WeatherDisplay:10.37,2013-01-31 14:01:00,
2013-01-31 08:06:00,9.4,8.7,29.73,NW,309,5.9,9.6,97,0.00,BKN,,0.00,WeatherDisplay:10.37,2013-01-31 14:06:00,
2013-01-31 08:11:00,9.1,8.4,29.73,NW,319,6.7,10.4,97,0.00,BKN,,0.00,WeatherDisplay:10.37,2013-01-31 14:11:00,
2013-01-31 08:16:00,9.1,8.4,29.73,West,273,5.4,10.4,97,0.00,BKN,,0.00,WeatherDisplay:10.37,2013-01-31 14:16:00,
2013-01-31 08:21:00,9.1,8.2,29.73,North,7,6.7,9.2,96,0.00,BKN,,0.00,WeatherDisplay:10.37,2013-01-31 14:21:00,
2013-01-31 08:26:00,9.1,8.4,29.73,WNW,292,6.3,9.2,97,0.00,BKN,,0.00,WeatherDisplay:10.37,2013-01-31 14:26:00,
2013-01-31 08:31:00,9.1,8.7,29.73,NW,311,7.4,10.4,98,0.00,BKN,,0.00,WeatherDisplay:10.37,2013-01-31 14:31:00,
2013-01-31 08:36:00,9.2,9.0,29.74,WNW,291,3.5,10.4,99,0.00,BKN,,0.00,WeatherDisplay:10.37,2013-01-31 14:36:00,
2013-01-31 08:41:00,9.1,8.9,29.74,WNW,285,5.6,9.2,99,0.00,BKN,,0.00,WeatherDisplay:10.37,2013-01-31 14:41:00,
2013-01-31 08:46:00,8.9,8.5,29.74,WSW,240,4.2,10.4,98,0.00,BKN,,0.00,WeatherDisplay:10.37,2013-01-31 14:46:00,
2013-01-31 08:51:00,8.7,8.3,29.74,NW,316,8.0,11.5,98,0.00,BKN,,0.00,WeatherDisplay:10.37,2013-01-31 14:51:00,
2013-01-31 08:56:00,8.6,7.7,29.74,WNW,284,8.8,15.0,96,0.00,BKN,,0.00,WeatherDisplay:10.37,2013-01-31 14:56:00,
2013-01-31 09:01:00,8.3,7.2,29.75,West,280,8.8,13.8,95,0.00,BKN,,0.00,WeatherDisplay:10.37,2013-01-31 15:01:00,
2013-01-31 09:06:00,8.5,7.1,29.75,West,281,7.5,11.5,94,0.00,BKN,,0.00,WeatherDisplay:10.37,2013-01-31 15:06:00,
2013-01-31 09:11:00,8.8,7.2,29.75,WNW,294,1.3,15.0,93,0.00,BKN,,0.00,WeatherDisplay:10.37,2013-01-31 15:11:00,
2013-01-31 09:16:00,8.8,7.0,29.75,NNW,338,3.4,6.9,92,0.00,BKN,,0.00,WeatherDisplay:10.37,2013-01-31 15:16:00,
2013-01-31 09:21:00,8.5,5.9,29.75,West,271,6.2,12.7,89,0.00,BKN,,0.00,WeatherDisplay:10.37,2013-01-31 15:21:00,
2013-01-31 09:26:00,8.5,4.4,29.75,NW,311,8.6,13.8,83,0.00,BKN,,0.00,WeatherDisplay:10.37,2013-01-31 15:26:00,
2013-01-31 09:31:00,8.1,3.5,29.76,NW,307,7.9,12.7,81,0.00,BKN,,0.00,WeatherDisplay:10.37,2013-01-31 15:31:00,
2013-01-31 09:36:00,8.4,3.5,29.76,WSW,244,7.0,11.5,80,0.00,BKN,,0.00,WeatherDisplay:10.37,2013-01-31 15:36:00,
2013-01-31 09:41:00,8.5,3.6,29.76,NNW,329,4.6,10.4,80,0.00,BKN,,0.00,WeatherDisplay:10.37,2013-01-31 15:41:00,
2013-01-31 09:46:00,8.5,3.0,29.77,NW,312,11.3,21.9,78,0.00,BKN,,0.00,WeatherDisplay:10.37,2013-01-31 15:46:00,
2013-01-31 09:51:00,7.9,2.7,29.77,NE,34,8.2,15.0,79,0.00,BKN,,0.00,WeatherDisplay:10.37,2013-01-31 15:51:00,
2013-01-31 09:56:00,8.1,3.2,29.77,NW,319,8.3,12.7,80,0.00,BKN,,0.00,WeatherDisplay:10.37,2013-01-31 15:56:00,
2013-01-31 10:01:00,8.4,3.8,29.77,SW,216,9.5,10.4,81,0.00,BKN,,0.00,WeatherDisplay:10.37,2013-01-31 16:01:00,
2013-01-31 10:06:00,8.2,3.6,29.77,West,261,5.9,11.6,81,0.00,BKN,,0.00,WeatherDisplay:10.37,2013-01-31 16:06:00,
2013-01-31 10:11:00,7.8,3.2,29.78,WNW,288,10.7,15.0,81,0.00,BKN,,0.00,WeatherDisplay:10.37,2013-01-31 16:11:00,
2013-01-31 10:16:00,7.5,3.2,29.78,NNW,333,8.4,10.4,82,0.00,BKN,,0.00,WeatherDisplay:10.37,2013-01-31 16:16:00,
2013-01-31 10:21:00,7.8,3.2,29.78,WNW,302,5.8,9.2,81,0.00,BKN,,0.00,WeatherDisplay:10.37,2013-01-31 16:21:00,
2013-01-31 10:26:00,8.1,3.2,29.79,NNW,348,5.1,13.8,80,0.00,BKN,,0.00,WeatherDisplay:10.37,2013-01-31 16:26:00,
2013-01-31 10:31:00,8.3,2.9,29.79,North,3,9.1,15.0,78,0.00,BKN,,0.00,WeatherDisplay:10.37,2013-01-31 16:31:00,
2013-01-31 10:36:00,8.3,3.1,29.79,NNW,338,6.9,13.8,79,0.00,BKN,,0.00,WeatherDisplay:10.37,2013-01-31 16:36:00,
2013-01-31 10:41:00,8.2,3.0,29.79,NW,305,10.1,17.3,79,0.00,BKN,,0.00,WeatherDisplay:10.37,2013-01-31 16:41:00,
2013-01-31 10:46:00,8.5,3.3,29.79,WNW,285,7.2,13.8,79,0.00,BKN,,0.00,WeatherDisplay:10.37,2013-01-31 16:46:00,
2013-01-31 10:51:00,8.2,2.5,29.79,NW,309,9.8,16.1,77,0.00,BKN,,0.00,WeatherDisplay:10.37,2013-01-31 16:51:00,
2013-01-31 10:56:00,8.3,2.6,29.79,WNW,288,10.0,17.3,77,0.00,BKN,,0.00,WeatherDisplay:10.37,2013-01-31 16:56:00,
2013-01-31 11:01:00,8.1,2.4,29.80,NW,305,5.5,10.4,77,0.00,BKN,,0.00,WeatherDisplay:10.37,2013-01-31 17:01:00,
2013-01-31 11:06:00,8.2,2.5,29.80,NNW,336,6.8,13.8,77,0.00,BKN,,0.00,WeatherDisplay:10.37,2013-01-31 17:06:00,
2013-01-31 11:11:00,7.9,1.0,29.80,NNW,329,9.0,16.1,73,0.00,BKN,,0.00,WeatherDisplay:10.37,2013-01-31 17:11:00,
2013-01-31 11:16:00,8.1,2.1,29.80,NW,318,7.9,17.3,76,0.00,BKN,,0.00,WeatherDisplay:10.37,2013-01-31 17:16:00,
2013-01-31 11:21:00,8.1,2.1,29.80,WNW,298,10.5,16.1,76,0.00,BKN,,0.00,WeatherDisplay:10.37,2013-01-31 17:21:00,
2013-01-31 11:26:00,8.5,2.5,29.80,SW,226,6.1,12.7,76,0.00,BKN,,0.00,WeatherDisplay:10.37,2013-01-31 17:26:00,
2013-01-31 11:31:00,8.5,3.0,29.80,NW,309,5.4,8.1,78,0.00,BKN,,0.00,WeatherDisplay:10.37,2013-01-31 17:31:00,
2013-01-31 11:36:00,8.1,4.3,29.80,West,277,9.1,13.8,84,0.00,BKN,,0.00,WeatherDisplay:10.37,2013-01-31 17:36:00,
2013-01-31 11:41:00,8.5,5.2,29.80,NNW,331,3.1,6.9,86,0.00,BKN,,0.00,WeatherDisplay:10.37,2013-01-31 17:41:00,
2013-01-31 11:46:00,8.6,5.3,29.81,WNW,287,8.1,11.5,86,0.00,BKN,,0.00,WeatherDisplay:10.37,2013-01-31 17:46:00,
2013-01-31 11:51:00,8.4,5.6,29.81,NNW,340,6.9,9.4,88,0.00,BKN,,0.00,WeatherDisplay:10.37,2013-01-31 17:51:00,
2013-01-31 11:56:00,8.3,5.7,29.81,NW,315,6.1,10.2,89,0.00,BKN,,0.00,WeatherDisplay:10.37,2013-01-31 17:56:00,
2013-01-31 12:01:00,8.8,6.7,29.81,NW,304,5.6,9.2,91,0.00,BKN,,0.00,WeatherDisplay:10.37,2013-01-31 18:01:00,
2013-01-31 12:06:00,8.3,5.5,29.81,West,280,9.0,13.8,88,0.00,BKN,,0.00,WeatherDisplay:10.37,2013-01-31 18:06:00,
2013-01-31 12:11:00,8.9,6.1,29.81,NW,304,4.3,8.1,88,0.00,BKN,,0.00,WeatherDisplay:10.37,2013-01-31 18:11:00,
2013-01-31 12:16:00,8.5,6.2,29.81,NW,322,5.1,9.2,90,0.00,BKN,,0.00,WeatherDisplay:10.37,2013-01-31 18:16:00,
2013-01-31 12:21:00,8.0,5.9,29.81,WNW,284,6.8,16.1,91,0.00,BKN,,0.00,WeatherDisplay:10.37,2013-01-31 18:21:00,
2013-01-31 12:26:00,8.1,6.3,29.81,NW,319,6.6,13.8,92,0.00,BKN,,0.00,WeatherDisplay:10.37,2013-01-31 18:26:00,
2013-01-31 12:31:00,8.6,7.0,29.81,WNW,302,4.1,5.8,93,0.00,BKN,,0.00,WeatherDisplay:10.37,2013-01-31 18:31:00,
2013-01-31 12:36:00,8.8,6.0,29.81,NNW,335,4.1,10.4,88,0.00,BKN,,0.00,WeatherDisplay:10.37,2013-01-31 18:36:00,
2013-01-31 12:41:00,8.7,5.6,29.81,WNW,285,7.1,15.0,87,0.00,BKN,,0.00,WeatherDisplay:10.37,2013-01-31 18:41:00,
2013-01-31 12:46:00,8.7,5.4,29.81,NW,305,7.1,9.2,86,0.00,BKN,,0.00,WeatherDisplay:10.37,2013-01-31 18:46:00,
2013-01-31 12:51:00,8.7,5.9,29.81,WNW,284,4.9,8.1,88,0.00,BKN,,0.00,WeatherDisplay:10.37,2013-01-31 18:51:00,
2013-01-31 12:56:00,8.6,4.5,29.82,WNW,300,5.3,10.8,83,0.00,BKN,,0.00,WeatherDisplay:10.37,2013-01-31 18:56:00,
2013-01-31 13:01:00,8.6,4.5,29.82,NNW,333,6.4,11.5,83,0.00,BKN,,0.00,WeatherDisplay:10.37,2013-01-31 19:01:00,
2013-01-31 13:06:00,8.6,4.8,29.82,WSW,254,5.1,8.1,84,0.00,BKN,,0.00,WeatherDisplay:10.37,2013-01-31 19:06:00,
2013-01-31 13:11:00,8.6,4.0,29.82,WNW,288,8.9,13.8,81,0.00,BKN,,0.00,WeatherDisplay:10.37,2013-01-31 19:11:00,
2013-01-31 13:16:00,8.7,4.3,29.82,NNW,343,5.7,13.8,82,0.00,BKN,,0.00,WeatherDisplay:10.37,2013-01-31 19:16:00,
2013-01-31 13:21:00,8.8,4.4,29.82,WSW,244,6.2,12.8,82,0.00,BKN,,0.00,WeatherDisplay:10.37,2013-01-31 19:21:00,
2013-01-31 13:26:00,9.0,4.6,29.82,NNW,333,2.7,10.4,82,0.00,BKN,,0.00,WeatherDisplay:10.37,2013-01-31 19:26:00,
2013-01-31 13:31:00,8.9,4.3,29.82,NW,305,3.6,11.5,81,0.00,BKN,,0.00,WeatherDisplay:10.37,2013-01-31 19:31:00,
2013-01-31 13:36:00,9.1,5.0,29.83,NW,308,2.0,6.4,83,0.00,BKN,,0.00,WeatherDisplay:10.37,2013-01-31 19:36:00,
2013-01-31 13:41:00,8.8,4.2,29.83,West,266,6.7,11.5,81,0.00,BKN,,0.00,WeatherDisplay:10.37,2013-01-31 19:41:00,
2013-01-31 13:46:00,9.0,4.4,29.83,NW,307,5.8,9.2,81,0.00,BKN,,0.00,WeatherDisplay:10.37,2013-01-31 19:46:00,
2013-01-31 13:51:00,8.8,3.9,29.83,SW,215,8.3,17.3,80,0.00,BKN,,0.00,WeatherDisplay:10.37,2013-01-31 19:51:00,
2013-01-31 13:56:00,8.8,3.9,29.83,West,260,7.8,13.7,80,0.00,BKN,,0.00,WeatherDisplay:10.37,2013-01-31 19:56:00,
2013-01-31 14:01:00,8.5,3.0,29.84,WNW,287,8.0,13.8,78,0.00,-SN,,0.00,WeatherDisplay:10.37,2013-01-31 20:01:00,
2013-01-31 14:06:00,8.5,3.3,29.84,NW,307,9.9,17.3,79,0.00,-SN,,0.00,WeatherDisplay:10.37,2013-01-31 20:06:00,
2013-01-31 14:11:00,8.7,3.8,29.84,NNW,332,4.2,11.5,80,0.00,-SN,,0.00,WeatherDisplay:10.37,2013-01-31 20:11:00,
2013-01-31 14:16:00,8.6,3.7,29.84,WNW,287,6.3,11.5,80,0.00,-SN,,0.00,WeatherDisplay:10.37,2013-01-31 20:16:00,
2013-01-31 14:21:00,8.5,3.9,29.84,WNW,292,7.9,11.5,81,0.00,-SN,,0.00,WeatherDisplay:10.37,2013-01-31 20:21:00,
2013-01-31 14:26:00,8.4,4.6,29.85,NW,305,6.8,10.4,84,0.00,-SN,,0.00,WeatherDisplay:10.37,2013-01-31 20:26:00,
2013-01-31 14:31:00,8.2,4.1,29.85,WSW,257,5.2,12.7,83,0.00,-SN,,0.00,WeatherDisplay:10.37,2013-01-31 20:31:00,
2013-01-31 14:36:00,8.5,4.1,29.85,SW,236,4.6,12.7,82,0.00,-SN,,0.00,WeatherDisplay:10.37,2013-01-31 20:36:00,
2013-01-31 14:41:00,8.4,4.3,29.85,WSW,253,7.6,13.8,83,0.00,-SN,,0.00,WeatherDisplay:10.37,2013-01-31 20:41:00,
2013-01-31 14:46:00,8.5,4.1,29.85,NNW,329,7.7,11.5,82,0.00,-SN,,0.00,WeatherDisplay:10.37,2013-01-31 20:46:00,
2013-01-31 14:51:00,8.5,4.7,29.85,WSW,253,6.7,13.0,84,0.00,-SN,,0.00,WeatherDisplay:10.37,2013-01-31 20:51:00,
2013-01-31 14:56:00,8.6,5.0,29.85,WSW,256,4.3,9.2,85,0.00,-SN,,0.00,WeatherDisplay:10.37,2013-01-31 20:56:00,
2013-01-31 15:01:00,8.4,4.6,29.85,NW,305,5.9,9.2,84,0.00,-SN,,0.00,WeatherDisplay:10.37,2013-01-31 21:01:00,
2013-01-31 15:06:00,8.0,4.2,29.85,NW,315,8.8,12.7,84,0.00,-SN,,0.00,WeatherDisplay:10.37,2013-01-31 21:06:00,
2013-01-31 15:11:00,7.7,3.4,29.86,North,9,9.0,13.8,82,0.00,-SN,,0.00,WeatherDisplay:10.37,2013-01-31 21:11:00,
2013-01-31 15:16:00,7.8,4.2,29.86,NW,314,7.5,13.2,85,0.00,-SN,,0.00,WeatherDisplay:10.37,2013-01-31 21:16:00,
2013-01-31 15:21:00,7.8,5.0,29.86,WSW,250,5.5,10.4,88,0.00,-SN,,0.00,WeatherDisplay:10.37,2013-01-31 21:21:00,
2013-01-31 15:26:00,7.4,4.8,29.87,NW,311,9.1,13.8,89,0.00,-SN,,0.00,WeatherDisplay:10.37,2013-01-31 21:26:00,
2013-01-31 15:31:00,7.2,4.1,29.87,NW,309,9.5,12.6,87,0.00,-SN,,0.00,WeatherDisplay:10.37,2013-01-31 21:31:00,
2013-01-31 15:36:00,7.0,4.4,29.87,WNW,295,7.7,15.0,89,0.00,-SN,,0.00,WeatherDisplay:10.37,2013-01-31 21:36:00,
2013-01-31 15:41:00,7.0,4.2,29.87,West,260,6.7,10.7,88,0.00,-SN,,0.00,WeatherDisplay:10.37,2013-01-31 21:41:00,
2013-01-31 15:46:00,7.2,4.6,29.88,SW,235,7.5,12.7,89,0.00,-SN,,0.00,WeatherDisplay:10.37,2013-01-31 21:46:00,
2013-01-31 15:51:00,7.0,4.7,29.88,NW,305,8.4,11.5,90,0.00,-SN,,0.00,WeatherDisplay:10.37,2013-01-31 21:51:00,
2013-01-31 15:56:00,6.8,3.8,29.88,WSW,253,7.8,15.0,87,0.00,-SN,,0.00,WeatherDisplay:10.37,2013-01-31 21:56:00,
2013-01-31 16:01:00,6.8,3.0,29.88,NW,321,9.2,15.0,84,0.00,-SN,,0.00,WeatherDisplay:10.37,2013-01-31 22:01:00,
2013-01-31 16:06:00,6.7,2.9,29.89,WNW,297,11.8,19.6,84,0.00,-SN,,0.00,WeatherDisplay:10.37,2013-01-31 22:06:00,
2013-01-31 16:11:00,6.6,3.3,29.89,WNW,294,5.7,10.4,86,0.00,-SN,,0.00,WeatherDisplay:10.37,2013-01-31 22:11:00,
2013-01-31 16:16:00,6.6,2.8,29.89,West,277,7.9,14.2,84,0.00,-SN,,0.00,WeatherDisplay:10.37,2013-01-31 22:16:00,
2013-01-31 16:21:00,6.6,2.8,29.89,WNW,301,7.4,12.7,84,0.00,-SN,,0.00,WeatherDisplay:10.37,2013-01-31 22:21:00,
2013-01-31 16:26:00,6.4,2.6,29.90,West,277,8.8,13.8,84,0.00,-SN,,0.00,WeatherDisplay:10.37,2013-01-31 22:26:00,
2013-01-31 16:31:00,6.2,2.4,29.90,West,264,7.7,11.5,84,0.00,-SN,,0.00,WeatherDisplay:10.37,2013-01-31 22:31:00,
2013-01-31 16:36:00,6.1,1.8,29.90,West,266,6.5,16.1,82,0.00,-SN,,0.00,WeatherDisplay:10.37,2013-01-31 22:36:00,
2013-01-31 16:41:00,5.9,1.8,29.90,West,260,10.4,15.0,83,0.00,-SN,,0.00,WeatherDisplay:10.37,2013-01-31 22:41:00,
2013-01-31 16:46:00,5.9,1.8,29.91,WNW,287,8.1,15.0,83,0.00,-SN,,0.00,WeatherDisplay:10.37,2013-01-31 22:46:00,
2013-01-31 16:51:00,5.8,1.8,29.91,SW,223,8.2,13.8,83,0.00,-SN,,0.00,WeatherDisplay:10.37,2013-01-31 22:51:00,
2013-01-31 16:56:00,5.7,2.2,29.91,NNW,328,8.9,15.0,85,0.00,-SN,,0.00,WeatherDisplay:10.37,2013-01-31 22:56:00,
2013-01-31 17:01:00,5.4,1.9,29.91,NW,309,7.1,10.4,85,0.00,-SN,,0.00,WeatherDisplay:10.37,2013-01-31 23:01:00,
2013-01-31 17:06:00,5.4,2.1,29.92,NW,322,5.0,9.2,86,0.00,-SN,,0.00,WeatherDisplay:10.37,2013-01-31 23:06:00,
2013-01-31 17:11:00,5.3,2.3,29.92,WNW,283,7.1,12.7,87,0.00,-SN,,0.00,WeatherDisplay:10.37,2013-01-31 23:11:00,
2013-01-31 17:16:00,5.2,2.4,29.92,NW,305,8.2,13.8,88,0.00,-SN,,0.00,WeatherDisplay:10.37,2013-01-31 23:16:00,
2013-01-31 17:21:00,5.0,1.7,29.92,NW,314,11.1,17.3,86,0.00,-SN,,0.00,WeatherDisplay:10.37,2013-01-31 23:21:00,
2013-01-31 17:26:00,5.0,1.7,29.93,NW,307,7.4,11.2,86,0.00,-SN,,0.00,WeatherDisplay:10.37,2013-01-31 23:26:00,
2013-01-31 17:31:00,4.9,1.9,29.93,NW,305,6.7,15.0,87,0.00,-SN,,0.00,WeatherDisplay:10.37,2013-01-31 23:31:00,
2013-01-31 17:36:00,5.0,2.0,29.93,West,264,8.1,12.7,87,0.00,-SN,,0.00,WeatherDisplay:10.37,2013-01-31 23:36:00,
2013-01-31 17:41:00,4.8,2.0,29.93,NNW,339,8.8,15.0,88,0.00,-SN,,0.00,WeatherDisplay:10.37,2013-01-31 23:41:00,
2013-01-31 17:46:00,4.8,2.3,29.94,WNW,298,6.0,17.9,89,0.00,-SN,,0.00,WeatherDisplay:10.37,2013-01-31 23:46:00,
2013-01-31 17:51:00,4.7,2.4,29.94,WNW,285,4.4,9.2,90,0.00,-SN,,0.00,WeatherDisplay:10.37,2013-01-31 23:51:00,
2013-01-31 17:56:00,4.3,2.3,29.94,NW,312,10.8,20.7,91,0.00,-SN,,0.00,WeatherDisplay:10.37,2013-01-31 23:56:00,
2013-01-31 18:01:00,4.4,2.4,29.95,WNW,298,4.6,16.1,91,0.00,-SN,,0.00,WeatherDisplay:10.37,2013-02-01 00:01:00,
2013-01-31 18:06:00,4.2,2.2,29.95,NW,324,10.2,16.1,91,0.00,-SN,,0.00,WeatherDisplay:10.37,2013-02-01 00:06:00,
2013-01-31 18:11:00,4.1,2.1,29.95,West,270,8.6,15.0,91,0.00,-SN,,0.00,WeatherDisplay:10.37,2013-02-01 00:11:00,
2013-01-31 18:16:00,3.9,1.9,29.96,WNW,295,9.0,16.1,91,0.00,-SN,,0.00,WeatherDisplay:10.37,2013-02-01 00:16:00,
2013-01-31 18:21:00,3.7,0.9,29.96,WNW,298,9.5,17.3,88,0.00,-SN,,0.00,WeatherDisplay:10.37,2013-02-01 00:21:00,
2013-01-31 18:26:00,3.8,1.0,29.96,NE,44,6.4,15.0,88,0.00,-SN,,0.00,WeatherDisplay:10.37,2013-02-01 00:26:00,
2013-01-31 18:31:00,3.8,1.0,29.96,WSW,253,6.8,15.0,88,0.00,-SN,,0.00,WeatherDisplay:10.37,2013-02-01 00:31:00,
2013-01-31 18:36:00,3.6,0.6,29.97,WNW,300,5.4,13.8,87,0.00,-SN,,0.00,WeatherDisplay:10.37,2013-02-01 00:36:00,
2013-01-31 18:41:00,3.3,0.3,29.97,NW,304,10.9,16.1,87,0.00,-SN,,0.00,WeatherDisplay:10.37,2013-02-01 00:41:00,
2013-01-31 18:46:00,3.4,0.2,29.98,WNW,283,9.5,15.6,86,0.00,-SN,,0.00,WeatherDisplay:10.37,2013-02-01 00:46:00,
2013-01-31 18:51:00,3.3,0.1,29.98,NW,315,5.4,9.2,86,0.00,-SN,,0.00,WeatherDisplay:10.37,2013-02-01 00:51:00,
2013-01-31 18:56:00,3.0,-0.2,29.98,NW,304,8.0,12.7,86,0.00,-SN,,0.00,WeatherDisplay:10.37,2013-02-01 00:56:00,
2013-01-31 19:01:00,3.0,0.0,29.98,NNW,342,8.4,13.8,87,0.00,-SN,,0.00,WeatherDisplay:10.37,2013-02-01 01:01:00,
2013-01-31 19:06:00,2.9,-0.1,29.98,WNW,292,7.0,11.5,87,0.00,-SN,,0.00,WeatherDisplay:10.37,2013-02-01 01:06:00,
2013-01-31 19:11:00,2.7,-0.3,29.99,WNW,298,8.7,12.7,87,0.00,-SN,,0.00,WeatherDisplay:10.37,2013-02-01 01:11:00,
2013-01-31 19:16:00,2.6,-0.6,29.99,WNW,302,9.1,14.1,86,0.00,-SN,,0.00,WeatherDisplay:10.37,2013-02-01 01:16:00,
2013-01-31 19:21:00,2.6,-0.9,29.99,NW,305,7.2,11.5,85,0.00,-SN,,0.00,WeatherDisplay:10.37,2013-02-01 01:21:00,
2013-01-31 19:26:00,2.4,-0.8,30.00,WNW,302,9.2,12.7,86,0.00,-SN,,0.00,WeatherDisplay:10.37,2013-02-01 01:26:00,
2013-01-31 19:31:00,2.4,-0.8,30.00,West,281,7.1,13.8,86,0.00,-SN,,0.00,WeatherDisplay:10.37,2013-02-01 01:31:00,
2013-01-31 19:36:00,2.3,-0.9,30.00,WNW,300,5.8,13.8,86,0.00,-SN,,0.00,WeatherDisplay:10.37,2013-02-01 01:36:00,
2013-01-31 19:41:00,2.2,-1.3,30.00,WNW,292,5.5,13.8,85,0.00,-SN,,0.00,WeatherDisplay:10.37,2013-02-01 01:41:00,
2013-01-31 19:46:00,2.1,-1.4,30.00,NNW,329,5.9,10.6,85,0.00,-SN,,0.00,WeatherDisplay:10.37,2013-02-01 01:46:00,
2013-01-31 19:51:00,1.9,-1.3,30.01,North,360,7.4,9.2,86,0.00,-SN,,0.00,WeatherDisplay:10.37,2013-02-01 01:51:00,
2013-01-31 19:56:00,1.8,-1.4,30.01,NW,309,6.4,10.4,86,0.00,-SN,,0.00,WeatherDisplay:10.37,2013-02-01 01:56:00,
2013-01-31 20:01:00,1.7,-1.5,30.01,WNW,288,5.8,9.2,86,0.00,-SN,,0.00,WeatherDisplay:10.37,2013-02-01 02:01:00,
2013-01-31 20:06:00,1.8,-1.4,30.02,West,277,4.4,6.9,86,0.00,-SN,,0.00,WeatherDisplay:10.37,2013-02-01 02:06:00,
2013-01-31 20:11:00,1.5,-1.5,30.02,NW,304,6.4,11.5,87,0.00,-SN,,0.00,WeatherDisplay:10.37,2013-02-01 02:11:00,
2013-01-31 20:16:00,1.3,-1.7,30.02,WNW,302,8.2,10.4,87,0.00,-SN,,0.00,WeatherDisplay:10.37,2013-02-01 02:16:00,
2013-01-31 20:21:00,1.4,-1.3,30.02,NW,318,7.0,9.2,88,0.00,-SN,,0.00,WeatherDisplay:10.37,2013-02-01 02:21:00,
2013-01-31 20:26:00,1.3,-1.4,30.03,NW,324,4.8,9.2,88,0.00,-SN,,0.00,WeatherDisplay:10.37,2013-02-01 02:26:00,
2013-01-31 20:31:00,1.0,-1.7,30.03,WNW,292,7.9,11.5,88,0.00,-SN,,0.00,WeatherDisplay:10.37,2013-02-01 02:31:00,
2013-01-31 20:36:00,1.1,-1.6,30.03,WNW,297,4.7,10.4,88,0.00,-SN,,0.00,WeatherDisplay:10.37,2013-02-01 02:36:00,
2013-01-31 20:41:00,1.1,-1.4,30.03,NW,316,2.2,10.4,89,0.00,-SN,,0.00,WeatherDisplay:10.37,2013-02-01 02:41:00,
2013-01-31 20:46:00,0.9,-1.6,30.03,NW,309,5.4,10.4,89,0.00,-SN,,0.00,WeatherDisplay:10.37,2013-02-01 02:46:00,
2013-01-31 20:51:00,0.9,-1.6,30.03,West,260,6.9,10.4,89,0.00,-SN,,0.00,WeatherDisplay:10.37,2013-02-01 02:51:00,
2013-01-31 20:56:00,0.7,-1.8,30.04,West,277,6.1,11.5,89,0.00,-SN,,0.00,WeatherDisplay:10.37,2013-02-01 02:56:00,
2013-01-31 21:01:00,0.7,-1.8,30.04,NW,311,4.2,8.1,89,0.00,-SN,,0.00,WeatherDisplay:10.37,2013-02-01 03:01:00,
2013-01-31 21:06:00,0.7,-1.5,30.04,WNW,288,7.3,11.0,90,0.00,-SN,,0.00,WeatherDisplay:10.37,2013-02-01 03:06:00,
2013-01-31 21:11:00,0.6,-1.6,30.05,West,263,7.1,15.0,90,0.00,-SN,,0.00,WeatherDisplay:10.37,2013-02-01 03:11:00,
2013-01-31 21:16:00,0.4,-1.8,30.05,WNW,294,6.9,10.4,90,0.00,-SN,,0.00,WeatherDisplay:10.37,2013-02-01 03:16:00,
2013-01-31 21:21:00,0.4,-1.8,30.05,West,276,7.4,12.5,90,0.00,-SN,,0.00,WeatherDisplay:10.37,2013-02-01 03:21:00,
2013-01-31 21:26:00,0.4,-1.8,30.05,WNW,292,7.7,11.5,90,0.00,-SN,,0.00,WeatherDisplay:10.37,2013-02-01 03:26:00,
2013-01-31 21:31:00,0.2,-2.0,30.05,West,274,7.5,12.7,90,0.00,-SN,,0.00,WeatherDisplay:10.37,2013-02-01 03:31:00,
2013-01-31 21:36:00,-0.1,-2.1,30.05,NW,316,5.5,9.4,91,0.00,-SN,,0.00,WeatherDisplay:10.37,2013-02-01 03:36:00,
2013-01-31 21:41:00,0.1,-1.9,30.06,West,261,3.1,4.6,91,0.00,-SN,,0.00,WeatherDisplay:10.37,2013-02-01 03:41:00,
2013-01-31 21:46:00,0.0,-1.8,30.06,WNW,287,2.3,7.8,92,0.00,-SN,,0.00,WeatherDisplay:10.37,2013-02-01 03:46:00,
2013-01-31 21:51:00,-0.2,-2.0,30.06,NW,319,6.9,9.8,92,0.00,-SN,,0.00,WeatherDisplay:10.37,2013-02-01 03:51:00,
2013-01-31 21:56:00,-0.1,-1.9,30.06,NNW,329,4.9,11.5,92,0.00,-SN,,0.00,WeatherDisplay:10.37,2013-02-01 03:56:00,
2013-01-31 22:01:00,-0.4,-2.2,30.06,North,357,5.2,11.5,92,0.00,FEW,,0.00,WeatherDisplay:10.37,2013-02-01 04:01:00,
2013-01-31 22:06:00,-0.4,-2.2,30.06,West,276,6.3,11.5,92,0.00,FEW,,0.00,WeatherDisplay:10.37,2013-02-01 04:06:00,
2013-01-31 22:11:00,-0.3,-2.1,30.06,NW,316,7.7,11.5,92,0.00,FEW,,0.00,WeatherDisplay:10.37,2013-02-01 04:11:00,
2013-01-31 22:16:00,-0.4,-2.2,30.06,West,278,3.4,9.2,92,0.00,FEW,,0.00,WeatherDisplay:10.37,2013-02-01 04:16:00,
2013-01-31 22:21:00,-0.6,-2.4,30.07,WNW,297,5.2,6.9,92,0.00,FEW,,0.00,WeatherDisplay:10.37,2013-02-01 04:21:00,
2013-01-31 22:26:00,-0.5,-2.3,30.07,NW,318,4.8,9.2,92,0.00,FEW,,0.00,WeatherDisplay:10.37,2013-02-01 04:26:00,
2013-01-31 22:31:00,-0.4,-2.2,30.07,WNW,288,2.6,10.8,92,0.00,FEW,,0.00,WeatherDisplay:10.37,2013-02-01 04:31:00,
2013-01-31 22:36:00,-0.6,-2.4,30.07,WNW,292,4.9,9.2,92,0.00,FEW,,0.00,WeatherDisplay:10.37,2013-02-01 04:36:00,
2013-01-31 22:41:00,-0.7,-2.5,30.08,NW,325,7.8,10.4,92,0.00,FEW,,0.00,WeatherDisplay:10.37,2013-02-01 04:41:00,
2013-01-31 22:46:00,-0.8,-2.6,30.08,NW,318,6.4,10.4,92,0.00,FEW,,0.00,WeatherDisplay:10.37,2013-02-01 04:46:00,
2013-01-31 22:51:00,-0.9,-2.7,30.08,WNW,301,6.2,11.5,92,0.00,FEW,,0.00,WeatherDisplay:10.37,2013-02-01 04:51:00,
2013-01-31 22:56:00,-0.9,-2.7,30.08,WSW,250,6.1,8.1,92,0.00,FEW,,0.00,WeatherDisplay:10.37,2013-02-01 04:56:00,
2013-01-31 23:00:00,-0.9,-2.7,30.08,West,281,3.3,9.2,92,0.00,FEW,,0.00,WeatherDisplay:10.37,2013-02-01 05:00:00,
2013-01-31 23:01:00,-0.9,-2.7,30.08,West,281,2.1,9.2,92,0.00,FEW,,0.00,WeatherDisplay:10.37,2013-02-01 05:01:00,
2013-01-31 23:06:00,-1.0,-2.8,30.08,NNW,343,2.0,8.1,92,0.00,CLR,,0.00,WeatherDisplay:10.37,2013-02-01 05:06:00,
2013-01-31 23:11:00,-1.2,-3.0,30.08,NW,326,5.2,8.1,92,0.00,CLR,,0.00,WeatherDisplay:10.37,2013-02-01 05:11:00,
2013-01-31 23:16:00,-1.1,-2.9,30.08,SW,215,4.5,8.1,92,0.00,CLR,,0.00,WeatherDisplay:10.37,2013-02-01 05:16:00,
2013-01-31 23:21:00,-1.2,-3.0,30.08,WNW,301,3.6,7.3,92,0.00,CLR,,0.00,WeatherDisplay:10.37,2013-02-01 05:21:00,
2013-01-31 23:26:00,-1.4,-3.2,30.08,NW,312,7.1,11.5,92,0.00,CLR,,0.00,WeatherDisplay:10.37,2013-02-01 05:26:00,
2013-01-31 23:31:00,-1.4,-2.9,30.09,WNW,283,7.2,12.7,93,0.00,CLR,,0.00,WeatherDisplay:10.37,2013-02-01 05:31:00,
2013-01-31 23:36:00,-1.5,-3.3,30.09,West,276,5.8,10.4,92,0.00,CLR,,0.00,WeatherDisplay:10.37,2013-02-01 05:36:00,
2013-01-31 23:41:00,-1.5,-3.3,30.09,WNW,292,6.2,10.4,92,0.00,CLR,,0.00,WeatherDisplay:10.37,2013-02-01 05:41:00,
2013-01-31 23:46:00,-1.6,-3.4,30.10,WNW,285,4.9,9.2,92,0.00,CLR,,0.00,WeatherDisplay:10.37,2013-02-01 05:46:00,
2013-01-31 23:51:00,-1.7,-3.5,30.10,West,266,3.3,5.8,92,0.00,CLR,,0.00,WeatherDisplay:10.37,2013-02-01 05:51:00,
2013-01-31 23:56:00,-1.5,-3.3,30.10,WSW,244,4.3,8.1,92,0.00,CLR,,0.00,WeatherDisplay:10.37,2013-02-01 05:56:00,